ローマ・レオナルド・ダ・ビンチ国際空港の過去48時間の天気

ローマ・レオナルド・ダ・ビンチ国際空港 (Roma Fiumicino)

現在時刻: 4/25 03:56 CEST (4/25 01:56 UTC) 以下の時間は現地時間です。

過去48時間のMETAR気象情報
時間 風向 風速(m/s) 視程 気温(℃) 湿度(%) 気圧(hPa) 天気現象
25 03:20 東北東 2 10km以上 12 94 1017
25 02:50 東北東 2 10km以上 12 100 1017
25 02:20 3 10km以上 12 94 1017
25 01:50 2 9000m 12 100 1017
25 01:20 2 8000m 12 94 1018
25 00:50 不定 1 8000m 13 94 1018
25 00:20 東北東 2 8000m 13 94 1017
24 23:50 東北東 3 8000m 13 94 1017
24 23:20 北東 2 7000m 13 94 1017
24 22:50 東北東 2 8000m 14 94 1017
24 22:20 2 8000m 15 88 1017
24 21:50 東北東 2 8000m 15 88 1017
24 21:20 東北東 1 8000m 16 82 1017
24 20:50 静穏 0 8000m 17 77 1017
24 20:20 北北西 1 8000m 17 83 1017
24 19:50 2 8000m 18 77 1016
24 19:20 北北西 2 8000m 18 77 1016
24 18:50 西北西 2 8000m 18 77 1017
24 18:20 西北西 4 8000m 18 77 1017
24 17:50 西 4 8000m 19 73 1016
24 17:20 西南西 4 8000m 20 68 1016
24 16:50 西南西 5 8000m 20 68 1016
24 16:20 西南西 5 10km以上 21 60 1016
24 15:50 南西 5 10km以上 22 57 1016
24 15:20 南南西 6 10km以上 23 53 1016
24 14:50 南南西 6 10km以上 22 53 1015
24 14:20 南南西 5 10km以上 23 53 1015
24 13:50 南南西 4 10km以上 22 57 1015
24 13:20 4 10km以上 22 53 1015
24 12:50 5 9000m 22 57 1015
24 12:20 4 10km以上 22 57 1015
24 11:50 3 10km以上 21 60 1015
24 11:20 3 10km以上 21 60 1015
24 10:50 3 10km以上 21 60 1015
24 10:20 南南東 3 9000m 21 60 1014
24 09:50 南南東 2 10km以上 20 64 1014
24 09:20 東南東 2 10km以上 19 68 1014
24 08:50 東北東 2 9000m 18 73 1014
24 08:20 東南東 2 8000m 16 82 1014
24 07:50 不定 1 7000m 15 88 1014
24 07:20 2 7000m 14 94 1014
24 06:50 2 8000m 12 100 1014
24 06:20 北東 2 8000m 12 100 1013
24 05:50 東北東 2 10km以上 12 100 1013
24 05:20 2 10km以上 13 94 1013
24 04:50 南東 3 10km以上 13 94 1013
24 04:20 南東 3 10km以上 14 94 1013
24 03:50 南東 3 10km以上 14 94 1013
24 03:20 南東 4 10km以上 15 88 1012
24 02:50 南東 4 10km以上 15 88 1012
24 02:20 南東 4 10km以上 15 94 1012
24 01:50 南南東 4 10km以上 16 88 1012
24 01:20 南南東 5 10km以上 16 88 1012
24 00:50 南南東 4 9000m 16 88 1012
24 00:20 南南東 4 9000m 16 88 1012
23 23:50 南南東 5 9000m 16 88 1012
23 23:20 南南東 6 8000m 17 83 1012
23 22:50 南南東 6 8000m 17 83 1011
23 22:20 南南東 5 8000m 17 83 1011
23 21:50 南南東 4 7000m 16 88 1010
23 21:20 南南東 5 8000m 17 83 1010
23 20:50 南南東 6 8000m 17 83 1009
23 20:20 南南東 6 8000m 17 77 1009
23 19:50 南南東 7 8000m 17 83 1008
23 19:20 南南東 7 10km以上 17 77 1008
23 18:50 南南東 6 10km以上 18 73 1008
23 18:20 南南東 7 10km以上 19 64 1008
23 17:50 5 10km以上 18 68 1007
23 17:20 南南東 5 10km以上 19 64 1007
23 16:50 南南東 5 10km以上 19 73 1007
23 16:20 5 10km以上 19 73 1007
23 15:50 5 10km以上 19 73 1007
23 15:20 6 10km以上 19 73 1007
23 14:50 南南東 6 10km以上 19 73 1007
23 14:20 南南東 7 10km以上 18 77 1007
23 13:50 6 10km以上 19 78 1006
23 13:20 南南東 7 9000m 18 77 1006
23 12:50 6 9000m 18 77 1006
23 12:20 南南東 7 7000m 18 83 1005
23 11:50 6 6000m 18 83 1005
23 11:20 南南東 7 6000m 17 88 1005
23 10:50 南南東 6 5000m 17 88 1004 もや
23 10:20 南南東 7 5000m 17 88 1004 弱い霧雨
23 09:50 南南東 7 4000m 16 88 1003 弱い雨
23 09:20 南東 9 6000m 16 88 1003
23 08:50 南東 9 7000m 16 88 1003
23 08:20 南東 7 8000m 16 88 1002 弱い霧雨
23 07:50 南東 7 8000m 16 82 1002 弱い霧雨
23 07:20 南東 7 8000m 15 88 1002 弱い霧雨
23 06:50 南東 6 8000m 15 88 1002 弱い雨
23 06:20 東南東 7 7000m 15 88 1002 弱い雨
23 05:50 南東 9 6000m 15 82 1002 雷雨
23 05:20 南東 8 10km以上 16 77 1002 周辺で雷
23 04:50 南東 9 10km以上 16 72 1002
23 04:20 南東 10 10km以上 16 72 1002
LIRF 250120Z 06003KT CAVOK 12/11 Q1017 NOSIG
LIRF 250050Z 06003KT CAVOK 12/12 Q1017 NOSIG
LIRF 250020Z 09005KT CAVOK 12/11 Q1017 NOSIG
LIRF 242350Z 08004KT 9000 NSC 12/12 Q1017 NOSIG
LIRF 242320Z 01003KT 8000 NSC 12/11 Q1018 NOSIG
LIRF 242250Z VRB01KT 8000 NSC 13/12 Q1018 NOSIG
LIRF 242220Z 06003KT 030V110 8000 NSC 13/12 Q1017 NOSIG
LIRF 242150Z 06005KT 8000 NSC 13/12 Q1017 NOSIG
LIRF 242120Z 04003KT 7000 NSC 13/12 Q1017 NOSIG
LIRF 242050Z 06003KT 010V080 8000 NSC 14/13 Q1017 NOSIG
LIRF 242020Z 09004KT 8000 NSC 15/13 Q1017 NOSIG
LIRF 241950Z 07003KT 8000 NSC 15/13 Q1017 NOSIG
LIRF 241920Z 06002KT 8000 NSC 16/13 Q1017 NOSIG
LIRF 241850Z 00000KT 8000 NSC 17/13 Q1017 NOSIG
LIRF 241820Z 33002KT 8000 NSC 17/14 Q1017 NOSIG
LIRF 241750Z 36003KT 8000 NSC 18/14 Q1016 NOSIG
LIRF 241720Z 33004KT 290V360 8000 NSC 18/14 Q1016 NOSIG
LIRF 241650Z 30004KT 8000 NSC 18/14 Q1017 NOSIG
LIRF 241620Z 30008KT 8000 NSC 18/14 Q1017 NOSIG
LIRF 241550Z 27007KT 8000 NSC 19/14 Q1016 NOSIG
LIRF 241520Z 24007KT 8000 NSC 20/14 Q1016 NOSIG
LIRF 241450Z 25009KT 8000 NSC 20/14 Q1016 NOSIG
LIRF 241420Z 24009KT CAVOK 21/13 Q1016 NOSIG
LIRF 241350Z 22010KT 180V240 CAVOK 22/13 Q1016 NOSIG
LIRF 241320Z 21011KT 170V230 CAVOK 23/13 Q1016 NOSIG
LIRF 241250Z 21012KT CAVOK 22/12 Q1015 NOSIG
LIRF 241220Z 20010KT 160V220 CAVOK 23/13 Q1015 NOSIG
LIRF 241150Z 20008KT 160V220 CAVOK 22/13 Q1015 NOSIG
LIRF 241120Z 19008KT 150V220 CAVOK 22/12 Q1015 NOSIG
LIRF 241050Z 19010KT 9000 NSC 22/13 Q1015 NOSIG
LIRF 241020Z 18007KT 150V220 CAVOK 22/13 Q1015 NOSIG
LIRF 240950Z 18006KT 150V210 CAVOK 21/13 Q1015 NOSIG
LIRF 240920Z 19006KT CAVOK 21/13 Q1015 NOSIG
LIRF 240850Z 18006KT 150V210 CAVOK 21/13 Q1015 NOSIG
LIRF 240820Z 15006KT 120V210 9000 NSC 21/13 Q1014 NOSIG
LIRF 240750Z 15004KT 090V210 CAVOK 20/13 Q1014 NOSIG
LIRF 240720Z 12004KT 070V180 CAVOK 19/13 Q1014 NOSIG
LIRF 240650Z 06004KT 9000 NSC 18/13 Q1014 NOSIG
LIRF 240620Z 11004KT 8000 NSC 16/13 Q1014 NOSIG
LIRF 240550Z VRB02KT 7000 NSC 15/13 Q1014 NOSIG
LIRF 240520Z 10004KT 080V140 7000 NSC 14/13 Q1014 NOSIG
LIRF 240450Z 08004KT 8000 NSC 12/12 Q1014 NOSIG
LIRF 240420Z 05004KT 8000 NSC 12/12 Q1013 NOSIG
LIRF 240350Z 07003KT CAVOK 12/12 Q1013 NOSIG
LIRF 240320Z 09004KT CAVOK 13/12 Q1013 NOSIG
LIRF 240250Z 13005KT CAVOK 13/12 Q1013 NOSIG
LIRF 240220Z 14006KT CAVOK 14/13 Q1013 NOSIG
LIRF 240150Z 13005KT CAVOK 14/13 Q1013 NOSIG
LIRF 240120Z 14007KT CAVOK 15/13 Q1012 NOSIG
LIRF 240050Z 13008KT CAVOK 15/13 Q1012 NOSIG
LIRF 240020Z 13007KT 9999 FEW012 15/14 Q1012 NOSIG
LIRF 232350Z 15008KT 9999 FEW012 16/14 Q1012 NOSIG
LIRF 232320Z 16009KT 9999 SCT012 16/14 Q1012 NOSIG
LIRF 232250Z 16008KT 9000 SCT012 16/14 Q1012 NOSIG
LIRF 232220Z 16008KT 140V200 9000 SCT012 16/14 Q1012 NOSIG
LIRF 232150Z 15009KT 9000 SCT020 16/14 Q1012 NOSIG
LIRF 232120Z 15012KT 130V190 8000 SCT011 17/14 Q1012 NOSIG
LIRF 232050Z 15011KT 130V190 8000 FEW015 SCT056 17/14 Q1011 NOSIG
LIRF 232020Z 15010KT 120V180 8000 FEW025 17/14 Q1011 NOSIG
LIRF 231950Z 16008KT 7000 FEW015 SCT023 16/14 Q1010 NOSIG
LIRF 231920Z 15010KT 8000 FEW050 17/14 Q1010 NOSIG
LIRF 231850Z 15011KT 8000 SCT045 17/14 Q1009 NOSIG
LIRF 231820Z 15012KT 8000 SCT045 17/13 Q1009 NOSIG
LIRF 231750Z 15014KT 130V190 8000 NSC 17/14 Q1008 NOSIG
LIRF 231720Z 15014KT 9999 SCT055 17/13 Q1008 NOSIG
LIRF 231650Z 16011KT 9999 FEW050 18/13 Q1008 NOSIG
LIRF 231620Z 16014KT 9999 FEW015 SCT055 19/12 Q1008 NOSIG
LIRF 231550Z 17010KT 9999 FEW010 SCT055 18/12 Q1007 NOSIG
LIRF 231520Z 16010KT 9999 FEW012 SCT055 19/12 Q1007 NOSIG
LIRF 231450Z 16010KT 140V200 9999 FEW012 SCT053 19/14 Q1007 NOSIG
LIRF 231420Z 17010KT 140V200 9999 FEW012 SCT053 19/14 Q1007 NOSIG
LIRF 231350Z 17010KT 140V200 9999 FEW012 19/14 Q1007 NOSIG
LIRF 231320Z 17011KT 140V200 9999 FEW015 SCT020 19/14 Q1007 NOSIG
LIRF 231250Z 16012KT 140V200 9999 SCT018 19/14 Q1007 BECMG 20018G28KT
LIRF 231220Z 15014KT 9999 SCT011 SCT020 18/14 Q1007 BECMG 20018G28KT
LIRF 231150Z 18012KT 9999 FEW011 SCT020 19/15 Q1006 BECMG 20018G28KT
LIRF 231120Z 16013KT 9000 SCT010 BKN020 18/14 Q1006 BECMG 20018G28KT
LIRF 231050Z 17012G22KT 9000 SCT011 BKN025 18/14 Q1006 BECMG 20018G28KT
LIRF 231020Z 16014KT 7000 FEW015 SCT025 18/15 Q1005 BECMG 20018G28KT
LIRF 230950Z 17012KT 6000 SCT012 SCT025 18/15 Q1005 BECMG 20018G28KT
LIRF 230920Z 16013KT 6000 SCT012 BKN025 17/15 Q1005 BECMG 20018G28KT
LIRF 230850Z 16012G22KT 5000 BR SCT012 BKN025 17/15 Q1004 BECMG 20018G28KT
LIRF 230820Z 16014KT 5000 R16L/P1500N R16R/1100D R25/P1500N R34R/P1500N -DZ SCT010 BKN025 17/15 Q1004 BECMG 20018G28KT
LIRF 230750Z 15013KT 4000 -RA SCT011 BKN020 16/14 Q1003 NOSIG
LIRF 230720Z 14017KT 6000 SCT012 BKN020 16/14 Q1003 NOSIG
LIRF 230650Z 14017KT 7000 SCT011 BKN025 16/14 Q1003 NOSIG
LIRF 230620Z 13014KT 8000 -DZ SCT015 BKN030 16/14 Q1002 NOSIG
LIRF 230550Z 13013KT 8000 -DZ SCT020 BKN030 16/13 Q1002 NOSIG
LIRF 230520Z 13014KT 8000 -DZ SCT020 BKN030 15/13 Q1002 NOSIG
LIRF 230450Z 14012KT 8000 -RA SCT025 SCT035 15/13 Q1002 RETSRA NOSIG
LIRF 230420Z 12014KT 7000 -RA SCT025 SCT040 15/13 Q1002 RETSRA NOSIG
LIRF 230350Z 13017KT 6000 TSRA SCT025 SCT030CB 15/12 Q1002 NOSIG
LIRF 230320Z 14016KT 9999 VCTS SCT030 FEW035CB 16/12 Q1002 TEMPO 4000 TSRA
LIRF 230250Z 13018KT 9999 FEW030 SCT045 16/11 Q1002 TEMPO 4000 TSRA
LIRF 230220Z 13019KT 9999 FEW030 SCT045 16/11 Q1002 TEMPO 4000 TSRA